sensor_id;sensor_type;location;lat;lon;timestamp;pressure;altitude;pressure_sealevel;temperature;humidity
37202;BME280;37799;52.390;6.136;2023-03-22T00:01:14;100892.66;;;9.40;100.00
37202;BME280;37799;52.390;6.136;2023-03-22T00:03:39;100899.59;;;9.38;100.00
37202;BME280;37799;52.390;6.136;2023-03-22T00:06:05;100879.31;;;9.60;100.00
37202;BME280;37799;52.390;6.136;2023-03-22T00:08:31;100891.59;;;9.51;100.00
37202;BME280;37799;52.390;6.136;2023-03-22T00:10:57;100877.84;;;9.49;100.00
37202;BME280;37799;52.390;6.136;2023-03-22T00:13:22;100883.34;;;9.32;100.00
37202;BME280;37799;52.390;6.136;2023-03-22T00:15:47;100878.53;;;9.57;100.00
37202;BME280;37799;52.390;6.136;2023-03-22T00:18:14;100882.00;;;9.56;100.00
37202;BME280;37799;52.390;6.136;2023-03-22T00:20:49;100875.25;;;9.49;100.00
37202;BME280;37799;52.390;6.136;2023-03-22T00:23:15;100878.78;;;9.44;100.00
37202;BME280;37799;52.390;6.136;2023-03-22T00:25:42;100883.97;;;9.44;100.00
37202;BME280;37799;52.390;6.136;2023-03-22T00:28:08;100883.06;;;9.45;100.00
37202;BME280;37799;52.390;6.136;2023-03-22T00:30:33;100867.94;;;9.27;100.00
37202;BME280;37799;52.390;6.136;2023-03-22T00:32:58;100874.75;;;9.31;100.00
37202;BME280;37799;52.390;6.136;2023-03-22T00:35:23;100878.16;;;9.33;100.00
37202;BME280;37799;52.390;6.136;2023-03-22T00:37:49;100870.16;;;9.45;100.00
37202;BME280;37799;52.390;6.136;2023-03-22T00:40:16;100866.97;;;9.33;100.00
37202;BME280;37799;52.390;6.136;2023-03-22T00:42:41;100864.34;;;9.34;100.00
37202;BME280;37799;52.390;6.136;2023-03-22T00:45:08;100865.16;;;9.38;100.00
37202;BME280;37799;52.390;6.136;2023-03-22T00:47:34;100859.75;;;9.49;100.00
37202;BME280;37799;52.390;6.136;2023-03-22T00:50:00;100865.97;;;9.40;100.00
37202;BME280;37799;52.390;6.136;2023-03-22T00:52:26;100858.97;;;9.45;100.00
37202;BME280;37799;52.390;6.136;2023-03-22T00:54:53;100854.53;;;9.52;100.00
37202;BME280;37799;52.390;6.136;2023-03-22T00:57:18;100867.56;;;9.45;100.00
37202;BME280;37799;52.390;6.136;2023-03-22T00:59:43;100848.25;;;9.62;100.00
37202;BME280;37799;52.390;6.136;2023-03-22T01:02:10;100849.22;;;9.58;100.00
37202;BME280;37799;52.390;6.136;2023-03-22T01:04:41;100856.28;;;9.50;100.00
37202;BME280;37799;52.390;6.136;2023-03-22T01:07:16;100846.56;;;9.61;100.00
37202;BME280;37799;52.390;6.136;2023-03-22T01:09:49;100841.81;;;9.41;100.00
37202;BME280;37799;52.390;6.136;2023-03-22T01:12:18;100836.69;;;9.39;100.00
37202;BME280;37799;52.390;6.136;2023-03-22T01:14:44;100833.00;;;9.51;100.00
37202;BME280;37799;52.390;6.136;2023-03-22T01:17:11;100840.19;;;9.35;100.00
37202;BME280;37799;52.390;6.136;2023-03-22T01:19:37;100836.63;;;9.42;100.00
37202;BME280;37799;52.390;6.136;2023-03-22T01:22:04;100832.25;;;9.44;100.00
37202;BME280;37799;52.390;6.136;2023-03-22T01:24:30;100833.16;;;9.43;100.00
37202;BME280;37799;52.390;6.136;2023-03-22T01:26:56;100821.22;;;9.38;100.00
37202;BME280;37799;52.390;6.136;2023-03-22T01:29:21;100826.66;;;9.26;100.00
37202;BME280;37799;52.390;6.136;2023-03-22T01:31:47;100820.22;;;9.43;100.00
37202;BME280;37799;52.390;6.136;2023-03-22T01:34:12;100823.81;;;9.36;100.00
37202;BME280;37799;52.390;6.136;2023-03-22T01:36:37;100811.47;;;9.49;100.00
37202;BME280;37799;52.390;6.136;2023-03-22T01:39:03;100809.69;;;9.53;100.00
37202;BME280;37799;52.390;6.136;2023-03-22T01:41:28;100805.88;;;9.30;100.00
37202;BME280;37799;52.390;6.136;2023-03-22T01:46:40;100797.00;;;9.42;100.00
37202;BME280;37799;52.390;6.136;2023-03-22T01:49:09;100789.41;;;9.34;100.00
37202;BME280;37799;52.390;6.136;2023-03-22T01:51:37;100785.28;;;9.27;100.00
37202;BME280;37799;52.390;6.136;2023-03-22T01:54:11;100781.91;;;9.22;100.00
37202;BME280;37799;52.390;6.136;2023-03-22T01:56:40;100775.41;;;9.44;100.00
37202;BME280;37799;52.390;6.136;2023-03-22T01:59:08;100772.19;;;9.33;100.00
37202;BME280;37799;52.390;6.136;2023-03-22T02:01:36;100770.38;;;9.38;100.00
37202;BME280;37799;52.390;6.136;2023-03-22T02:04:14;100761.75;;;9.39;100.00
37202;BME280;37799;52.390;6.136;2023-03-22T02:06:40;100759.81;;;9.48;100.00
37202;BME280;37799;52.390;6.136;2023-03-22T02:09:09;100751.44;;;9.38;100.00
37202;BME280;37799;52.390;6.136;2023-03-22T02:11:44;100751.34;;;9.42;100.00
37202;BME280;37799;52.390;6.136;2023-03-22T02:17:23;100742.97;;;9.31;100.00
37202;BME280;37799;52.390;6.136;2023-03-22T02:20:15;100740.91;;;9.45;100.00
37202;BME280;37799;52.390;6.136;2023-03-22T02:22:58;100743.38;;;9.50;100.00
37202;BME280;37799;52.390;6.136;2023-03-22T02:37:01;100713.47;;;9.41;100.00
37202;BME280;37799;52.390;6.136;2023-03-22T02:44:53;100707.53;;;9.36;100.00
37202;BME280;37799;52.390;6.136;2023-03-22T02:50:33;100698.72;;;9.45;100.00
37202;BME280;37799;52.390;6.136;2023-03-22T02:53:18;100695.78;;;9.23;100.00
37202;BME280;37799;52.390;6.136;2023-03-22T02:58:22;100684.31;;;9.35;100.00
37202;BME280;37799;52.390;6.136;2023-03-22T03:00:53;100681.34;;;9.50;100.00
37202;BME280;37799;52.390;6.136;2023-03-22T03:03:19;100671.91;;;9.49;100.00
37202;BME280;37799;52.390;6.136;2023-03-22T03:05:53;100677.34;;;9.38;100.00
37202;BME280;37799;52.390;6.136;2023-03-22T03:08:20;100674.22;;;9.60;100.00
37202;BME280;37799;52.390;6.136;2023-03-22T03:10:48;100675.75;;;9.68;100.00
37202;BME280;37799;52.390;6.136;2023-03-22T03:13:16;100670.00;;;9.57;100.00
37202;BME280;37799;52.390;6.136;2023-03-22T03:15:43;100663.38;;;9.45;100.00
37202;BME280;37799;52.390;6.136;2023-03-22T03:20:55;100657.03;;;9.59;100.00
37202;BME280;37799;52.390;6.136;2023-03-22T03:26:32;100655.75;;;9.75;100.00
37202;BME280;37799;52.390;6.136;2023-03-22T03:29:09;100650.44;;;9.81;100.00
37202;BME280;37799;52.390;6.136;2023-03-22T03:31:43;100647.34;;;9.67;100.00
37202;BME280;37799;52.390;6.136;2023-03-22T03:34:21;100643.06;;;9.66;100.00
37202;BME280;37799;52.390;6.136;2023-03-22T03:36:53;100652.75;;;9.58;100.00
37202;BME280;37799;52.390;6.136;2023-03-22T03:39:21;100648.88;;;9.74;100.00
37202;BME280;37799;52.390;6.136;2023-03-22T03:41:48;100650.16;;;9.58;100.00
37202;BME280;37799;52.390;6.136;2023-03-22T03:44:17;100642.28;;;9.62;100.00
37202;BME280;37799;52.390;6.136;2023-03-22T03:46:44;100641.47;;;9.60;100.00
37202;BME280;37799;52.390;6.136;2023-03-22T03:49:11;100647.66;;;9.55;100.00
37202;BME280;37799;52.390;6.136;2023-03-22T03:51:46;100642.63;;;9.49;100.00
37202;BME280;37799;52.390;6.136;2023-03-22T03:54:11;100650.28;;;9.53;100.00
37202;BME280;37799;52.390;6.136;2023-03-22T03:56:37;100643.16;;;9.61;100.00
37202;BME280;37799;52.390;6.136;2023-03-22T03:59:02;100642.41;;;9.58;100.00
37202;BME280;37799;52.390;6.136;2023-03-22T04:01:27;100647.53;;;9.59;100.00
37202;BME280;37799;52.390;6.136;2023-03-22T04:03:53;100640.78;;;9.54;100.00
37202;BME280;37799;52.390;6.136;2023-03-22T04:06:19;100641.53;;;9.59;100.00
37202;BME280;37799;52.390;6.136;2023-03-22T04:08:44;100642.72;;;9.45;100.00
37202;BME280;37799;52.390;6.136;2023-03-22T04:11:10;100651.94;;;9.56;100.00
37202;BME280;37799;52.390;6.136;2023-03-22T04:13:35;100648.31;;;9.63;100.00
37202;BME280;37799;52.390;6.136;2023-03-22T04:16:00;100641.44;;;9.62;100.00
37202;BME280;37799;52.390;6.136;2023-03-22T04:18:26;100647.09;;;9.76;100.00
37202;BME280;37799;52.390;6.136;2023-03-22T04:20:54;100645.16;;;9.52;100.00
37202;BME280;37799;52.390;6.136;2023-03-22T04:23:20;100638.94;;;9.59;100.00
37202;BME280;37799;52.390;6.136;2023-03-22T04:25:48;100642.28;;;9.64;100.00
37202;BME280;37799;52.390;6.136;2023-03-22T04:28:15;100639.03;;;9.88;100.00
37202;BME280;37799;52.390;6.136;2023-03-22T04:30:40;100634.16;;;9.78;100.00
37202;BME280;37799;52.390;6.136;2023-03-22T04:33:09;100633.47;;;9.71;100.00
37202;BME280;37799;52.390;6.136;2023-03-22T04:35:36;100634.13;;;9.79;100.00
37202;BME280;37799;52.390;6.136;2023-03-22T04:38:01;100625.88;;;9.63;100.00
37202;BME280;37799;52.390;6.136;2023-03-22T04:40:27;100630.47;;;9.54;100.00
37202;BME280;37799;52.390;6.136;2023-03-22T04:42:56;100630.16;;;9.66;100.00
37202;BME280;37799;52.390;6.136;2023-03-22T04:45:22;100620.47;;;9.72;100.00
37202;BME280;37799;52.390;6.136;2023-03-22T04:47:47;100625.28;;;9.86;100.00
37202;BME280;37799;52.390;6.136;2023-03-22T04:50:12;100624.50;;;9.84;100.00
37202;BME280;37799;52.390;6.136;2023-03-22T04:52:38;100631.66;;;9.73;100.00
37202;BME280;37799;52.390;6.136;2023-03-22T04:55:03;100625.66;;;9.72;100.00
37202;BME280;37799;52.390;6.136;2023-03-22T04:57:28;100624.09;;;9.67;100.00
37202;BME280;37799;52.390;6.136;2023-03-22T04:59:54;100612.69;;;9.74;100.00
37202;BME280;37799;52.390;6.136;2023-03-22T05:02:19;100617.44;;;9.89;100.00
37202;BME280;37799;52.390;6.136;2023-03-22T05:04:45;100611.22;;;9.96;100.00
37202;BME280;37799;52.390;6.136;2023-03-22T05:07:10;100611.94;;;10.01;100.00
37202;BME280;37799;52.390;6.136;2023-03-22T05:09:35;100609.25;;;10.06;100.00
37202;BME280;37799;52.390;6.136;2023-03-22T05:12:01;100607.75;;;9.97;100.00
37202;BME280;37799;52.390;6.136;2023-03-22T05:14:26;100602.09;;;9.83;100.00
37202;BME280;37799;52.390;6.136;2023-03-22T05:16:51;100602.50;;;10.00;100.00
37202;BME280;37799;52.390;6.136;2023-03-22T05:19:16;100591.00;;;10.11;100.00
37202;BME280;37799;52.390;6.136;2023-03-22T05:21:46;100596.53;;;9.98;100.00
37202;BME280;37799;52.390;6.136;2023-03-22T05:24:12;100584.34;;;10.02;100.00
37202;BME280;37799;52.390;6.136;2023-03-22T05:26:37;100574.03;;;10.00;100.00
37202;BME280;37799;52.390;6.136;2023-03-22T05:29:07;100577.06;;;10.16;100.00
37202;BME280;37799;52.390;6.136;2023-03-22T05:31:33;100581.00;;;9.98;100.00
37202;BME280;37799;52.390;6.136;2023-03-22T05:33:59;100581.66;;;10.07;100.00
37202;BME280;37799;52.390;6.136;2023-03-22T05:36:26;100583.13;;;9.84;100.00
37202;BME280;37799;52.390;6.136;2023-03-22T05:38:54;100581.81;;;10.00;100.00
37202;BME280;37799;52.390;6.136;2023-03-22T05:41:19;100578.38;;;10.00;100.00
37202;BME280;37799;52.390;6.136;2023-03-22T05:43:44;100572.00;;;10.12;100.00
37202;BME280;37799;52.390;6.136;2023-03-22T05:46:10;100583.28;;;10.09;100.00
37202;BME280;37799;52.390;6.136;2023-03-22T05:48:37;100580.91;;;10.01;100.00
37202;BME280;37799;52.390;6.136;2023-03-22T05:51:07;100581.22;;;9.91;100.00
37202;BME280;37799;52.390;6.136;2023-03-22T05:53:32;100581.19;;;9.92;100.00
37202;BME280;37799;52.390;6.136;2023-03-22T05:55:58;100583.16;;;9.83;100.00
37202;BME280;37799;52.390;6.136;2023-03-22T05:58:27;100580.84;;;10.04;100.00
37202;BME280;37799;52.390;6.136;2023-03-22T06:00:53;100578.22;;;10.06;100.00
37202;BME280;37799;52.390;6.136;2023-03-22T06:03:20;100569.19;;;9.88;100.00
37202;BME280;37799;52.390;6.136;2023-03-22T06:05:45;100572.63;;;9.90;100.00
37202;BME280;37799;52.390;6.136;2023-03-22T06:08:10;100582.59;;;10.02;100.00
37202;BME280;37799;52.390;6.136;2023-03-22T06:10:36;100586.59;;;10.14;100.00
37202;BME280;37799;52.390;6.136;2023-03-22T06:13:01;100580.16;;;9.98;100.00
37202;BME280;37799;52.390;6.136;2023-03-22T06:15:26;100576.72;;;9.97;100.00
37202;BME280;37799;52.390;6.136;2023-03-22T06:17:51;100568.09;;;9.97;100.00
37202;BME280;37799;52.390;6.136;2023-03-22T06:20:17;100576.66;;;9.99;100.00
37202;BME280;37799;52.390;6.136;2023-03-22T06:22:43;100575.97;;;9.94;100.00
37202;BME280;37799;52.390;6.136;2023-03-22T06:25:09;100565.22;;;10.08;100.00
37202;BME280;37799;52.390;6.136;2023-03-22T06:27:35;100560.69;;;10.16;100.00
37202;BME280;37799;52.390;6.136;2023-03-22T06:30:00;100553.34;;;10.00;100.00
37202;BME280;37799;52.390;6.136;2023-03-22T06:32:25;100568.47;;;10.16;100.00
37202;BME280;37799;52.390;6.136;2023-03-22T06:34:54;100558.19;;;10.13;100.00
37202;BME280;37799;52.390;6.136;2023-03-22T06:37:20;100559.59;;;10.24;100.00
37202;BME280;37799;52.390;6.136;2023-03-22T06:39:46;100568.78;;;10.34;100.00
37202;BME280;37799;52.390;6.136;2023-03-22T06:42:11;100570.31;;;10.42;100.00
37202;BME280;37799;52.390;6.136;2023-03-22T06:44:36;100565.00;;;10.46;100.00
37202;BME280;37799;52.390;6.136;2023-03-22T06:47:03;100569.19;;;10.50;100.00
37202;BME280;37799;52.390;6.136;2023-03-22T06:49:28;100572.88;;;10.71;100.00
37202;BME280;37799;52.390;6.136;2023-03-22T06:51:53;100572.19;;;10.64;100.00
37202;BME280;37799;52.390;6.136;2023-03-22T06:54:20;100555.97;;;10.59;100.00
37202;BME280;37799;52.390;6.136;2023-03-22T06:56:45;100564.72;;;10.83;100.00
37202;BME280;37799;52.390;6.136;2023-03-22T06:59:11;100555.13;;;10.59;100.00
37202;BME280;37799;52.390;6.136;2023-03-22T07:01:36;100556.91;;;10.57;100.00
37202;BME280;37799;52.390;6.136;2023-03-22T07:04:01;100555.88;;;10.62;100.00
37202;BME280;37799;52.390;6.136;2023-03-22T07:06:27;100549.63;;;10.70;100.00
37202;BME280;37799;52.390;6.136;2023-03-22T07:08:52;100547.56;;;10.81;100.00
37202;BME280;37799;52.390;6.136;2023-03-22T07:11:18;100553.44;;;10.86;100.00
37202;BME280;37799;52.390;6.136;2023-03-22T07:13:43;100563.84;;;11.11;100.00
37202;BME280;37799;52.390;6.136;2023-03-22T07:16:09;100566.69;;;11.30;100.00
37202;BME280;37799;52.390;6.136;2023-03-22T07:18:34;100565.84;;;11.29;100.00
37202;BME280;37799;52.390;6.136;2023-03-22T07:21:00;100575.56;;;11.22;100.00
37202;BME280;37799;52.390;6.136;2023-03-22T07:23:26;100576.91;;;11.34;100.00
37202;BME280;37799;52.390;6.136;2023-03-22T07:25:51;100569.88;;;11.38;100.00
37202;BME280;37799;52.390;6.136;2023-03-22T07:28:16;100554.88;;;11.21;100.00
37202;BME280;37799;52.390;6.136;2023-03-22T07:30:41;100569.03;;;11.37;100.00
37202;BME280;37799;52.390;6.136;2023-03-22T07:33:08;100576.59;;;11.17;100.00
37202;BME280;37799;52.390;6.136;2023-03-22T07:35:34;100564.88;;;11.05;100.00
37202;BME280;37799;52.390;6.136;2023-03-22T07:38:01;100564.19;;;11.00;100.00
37202;BME280;37799;52.390;6.136;2023-03-22T07:40:26;100560.75;;;11.00;100.00
37202;BME280;37799;52.390;6.136;2023-03-22T07:42:52;100564.13;;;11.02;100.00
37202;BME280;37799;52.390;6.136;2023-03-22T07:45:18;100555.22;;;11.10;100.00
37202;BME280;37799;52.390;6.136;2023-03-22T07:47:44;100561.38;;;11.06;100.00
37202;BME280;37799;52.390;6.136;2023-03-22T07:50:10;100568.31;;;11.06;100.00
37202;BME280;37799;52.390;6.136;2023-03-22T07:52:39;100563.50;;;11.21;100.00
37202;BME280;37799;52.390;6.136;2023-03-22T07:55:06;100568.38;;;11.04;100.00
37202;BME280;37799;52.390;6.136;2023-03-22T07:57:32;100566.28;;;11.15;100.00
37202;BME280;37799;52.390;6.136;2023-03-22T07:59:57;100562.00;;;11.14;100.00
37202;BME280;37799;52.390;6.136;2023-03-22T08:02:22;100564.44;;;11.19;100.00
37202;BME280;37799;52.390;6.136;2023-03-22T08:04:48;100579.25;;;11.15;100.00
37202;BME280;37799;52.390;6.136;2023-03-22T08:07:15;100566.78;;;11.27;100.00
37202;BME280;37799;52.390;6.136;2023-03-22T08:09:42;100573.81;;;11.49;100.00
37202;BME280;37799;52.390;6.136;2023-03-22T08:12:08;100560.97;;;11.45;100.00
37202;BME280;37799;52.390;6.136;2023-03-22T08:14:33;100568.50;;;11.52;100.00
37202;BME280;37799;52.390;6.136;2023-03-22T08:16:59;100567.97;;;11.43;100.00
37202;BME280;37799;52.390;6.136;2023-03-22T08:19:24;100561.88;;;11.44;100.00
37202;BME280;37799;52.390;6.136;2023-03-22T08:21:51;100556.25;;;11.82;100.00
37202;BME280;37799;52.390;6.136;2023-03-22T08:24:16;100549.69;;;11.72;100.00
37202;BME280;37799;52.390;6.136;2023-03-22T08:26:41;100554.88;;;11.72;100.00
37202;BME280;37799;52.390;6.136;2023-03-22T08:29:09;100546.34;;;11.94;100.00
37202;BME280;37799;52.390;6.136;2023-03-22T08:31:35;100559.63;;;11.85;100.00
37202;BME280;37799;52.390;6.136;2023-03-22T08:34:00;100549.31;;;11.83;100.00
37202;BME280;37799;52.390;6.136;2023-03-22T08:36:25;100564.28;;;12.00;100.00
37202;BME280;37799;52.390;6.136;2023-03-22T08:38:51;100562.41;;;11.78;100.00
37202;BME280;37799;52.390;6.136;2023-03-22T08:41:17;100561.34;;;11.86;100.00
37202;BME280;37799;52.390;6.136;2023-03-22T08:43:42;100575.50;;;11.75;100.00
37202;BME280;37799;52.390;6.136;2023-03-22T08:46:07;100562.59;;;11.74;100.00
37202;BME280;37799;52.390;6.136;2023-03-22T08:48:33;100559.94;;;11.75;100.00
37202;BME280;37799;52.390;6.136;2023-03-22T08:51:02;100561.09;;;11.92;100.00
37202;BME280;37799;52.390;6.136;2023-03-22T08:53:28;100542.50;;;12.04;100.00
37202;BME280;37799;52.390;6.136;2023-03-22T08:55:54;100549.19;;;12.09;100.00
37202;BME280;37799;52.390;6.136;2023-03-22T08:58:22;100547.13;;;12.19;100.00
37202;BME280;37799;52.390;6.136;2023-03-22T09:00:47;100548.81;;;12.20;100.00
37202;BME280;37799;52.390;6.136;2023-03-22T09:03:13;100534.53;;;12.32;100.00
37202;BME280;37799;52.390;6.136;2023-03-22T09:05:38;100529.53;;;12.27;100.00
37202;BME280;37799;52.390;6.136;2023-03-22T09:08:03;100545.38;;;12.43;100.00
37202;BME280;37799;52.390;6.136;2023-03-22T09:10:30;100530.91;;;12.36;100.00
37202;BME280;37799;52.390;6.136;2023-03-22T09:12:56;100546.53;;;12.58;100.00
37202;BME280;37799;52.390;6.136;2023-03-22T09:15:21;100548.41;;;12.31;100.00
37202;BME280;37799;52.390;6.136;2023-03-22T09:17:46;100546.47;;;12.37;100.00
37202;BME280;37799;52.390;6.136;2023-03-22T09:20:12;100553.22;;;12.42;100.00
37202;BME280;37799;52.390;6.136;2023-03-22T09:22:37;100541.59;;;12.28;100.00
37202;BME280;37799;52.390;6.136;2023-03-22T09:25:03;100538.75;;;12.34;100.00
37202;BME280;37799;52.390;6.136;2023-03-22T09:27:28;100532.50;;;12.40;100.00
37202;BME280;37799;52.390;6.136;2023-03-22T09:29:54;100538.16;;;12.50;100.00
37202;BME280;37799;52.390;6.136;2023-03-22T09:32:20;100528.94;;;12.43;100.00
37202;BME280;37799;52.390;6.136;2023-03-22T09:34:46;100531.59;;;12.41;100.00
37202;BME280;37799;52.390;6.136;2023-03-22T09:37:11;100539.06;;;12.49;100.00
37202;BME280;37799;52.390;6.136;2023-03-22T09:39:38;100535.72;;;12.23;100.00
37202;BME280;37799;52.390;6.136;2023-03-22T09:42:06;100534.28;;;12.16;100.00
37202;BME280;37799;52.390;6.136;2023-03-22T09:44:40;100536.09;;;12.14;100.00
37202;BME280;37799;52.390;6.136;2023-03-22T09:47:16;100530.88;;;12.14;100.00
37202;BME280;37799;52.390;6.136;2023-03-22T09:49:47;100544.91;;;12.08;100.00
37202;BME280;37799;52.390;6.136;2023-03-22T09:52:15;100551.31;;;12.00;100.00
37202;BME280;37799;52.390;6.136;2023-03-22T09:54:43;100548.91;;;11.94;100.00
37202;BME280;37799;52.390;6.136;2023-03-22T09:57:37;100552.81;;;12.05;100.00
37202;BME280;37799;52.390;6.136;2023-03-22T10:00:30;100544.59;;;11.94;100.00
37202;BME280;37799;52.390;6.136;2023-03-22T10:03:18;100549.81;;;11.93;100.00
37202;BME280;37799;52.390;6.136;2023-03-22T10:05:56;100540.81;;;12.03;100.00
37202;BME280;37799;52.390;6.136;2023-03-22T10:08:43;100546.13;;;12.00;100.00
37202;BME280;37799;52.390;6.136;2023-03-22T10:11:33;100541.47;;;12.08;100.00
37202;BME280;37799;52.390;6.136;2023-03-22T10:16:40;100552.31;;;11.96;100.00
37202;BME280;37799;52.390;6.136;2023-03-22T10:22:03;100541.56;;;11.81;100.00
37202;BME280;37799;52.390;6.136;2023-03-22T10:24:33;100543.66;;;11.70;100.00
37202;BME280;37799;52.390;6.136;2023-03-22T10:27:00;100543.38;;;11.79;100.00
37202;BME280;37799;52.390;6.136;2023-03-22T10:29:37;100544.31;;;11.77;100.00
37202;BME280;37799;52.390;6.136;2023-03-22T10:33:03;100544.69;;;11.66;100.00
37202;BME280;37799;52.390;6.136;2023-03-22T10:35:21;100542.81;;;11.70;100.00
37202;BME280;37799;52.390;6.136;2023-03-22T10:37:48;100544.31;;;11.77;100.00
37202;BME280;37799;52.390;6.136;2023-03-22T10:40:18;100551.91;;;11.83;100.00
37202;BME280;37799;52.390;6.136;2023-03-22T10:42:50;100556.63;;;11.70;100.00
37202;BME280;37799;52.390;6.136;2023-03-22T10:45:17;100553.84;;;11.51;100.00
37202;BME280;37799;52.390;6.136;2023-03-22T10:47:51;100567.59;;;11.53;100.00
37202;BME280;37799;52.390;6.136;2023-03-22T10:50:20;100561.75;;;11.48;100.00
37202;BME280;37799;52.390;6.136;2023-03-22T10:52:50;100569.97;;;11.35;100.00
37202;BME280;37799;52.390;6.136;2023-03-22T10:55:18;100559.50;;;11.38;100.00
37202;BME280;37799;52.390;6.136;2023-03-22T10:57:56;100556.41;;;11.27;100.00
37202;BME280;37799;52.390;6.136;2023-03-22T11:00:23;100555.63;;;11.25;100.00
37202;BME280;37799;52.390;6.136;2023-03-22T11:02:57;100558.75;;;11.34;100.00
37202;BME280;37799;52.390;6.136;2023-03-22T11:05:25;100563.78;;;11.39;100.00
37202;BME280;37799;52.390;6.136;2023-03-22T11:07:51;100560.28;;;11.40;100.00
37202;BME280;37799;52.390;6.136;2023-03-22T11:10:28;100563.38;;;11.51;100.00
37202;BME280;37799;52.390;6.136;2023-03-22T11:15:34;100557.47;;;11.21;100.00
37202;BME280;37799;52.390;6.136;2023-03-22T11:18:10;100561.50;;;11.30;100.00
37202;BME280;37799;52.390;6.136;2023-03-22T11:20:39;100555.03;;;11.16;100.00
37202;BME280;37799;52.390;6.136;2023-03-22T11:23:05;100555.88;;;11.17;100.00
37202;BME280;37799;52.390;6.136;2023-03-22T11:25:34;100568.75;;;11.20;100.00
37202;BME280;37799;52.390;6.136;2023-03-22T11:30:30;100543.34;;;11.03;100.00
37202;BME280;37799;52.390;6.136;2023-03-22T11:35:24;100541.16;;;11.17;100.00
37202;BME280;37799;52.390;6.136;2023-03-22T11:37:53;100550.06;;;11.10;100.00
37202;BME280;37799;52.390;6.136;2023-03-22T11:40:24;100541.03;;;10.96;100.00
37202;BME280;37799;52.390;6.136;2023-03-22T11:42:55;100530.13;;;11.12;100.00
37202;BME280;37799;52.390;6.136;2023-03-22T11:45:28;100542.59;;;11.26;100.00
37202;BME280;37799;52.390;6.136;2023-03-22T11:48:01;100546.84;;;11.29;100.00
37202;BME280;37799;52.390;6.136;2023-03-22T11:50:31;100548.00;;;11.20;100.00
37202;BME280;37799;52.390;6.136;2023-03-22T11:53:01;100531.00;;;10.85;100.00
37202;BME280;37799;52.390;6.136;2023-03-22T11:55:28;100530.97;;;10.86;100.00
37202;BME280;37799;52.390;6.136;2023-03-22T11:57:56;100522.91;;;10.96;100.00
37202;BME280;37799;52.390;6.136;2023-03-22T12:00:29;100524.66;;;10.93;100.00
37202;BME280;37799;52.390;6.136;2023-03-22T12:03:16;100532.88;;;11.06;100.00
37202;BME280;37799;52.390;6.136;2023-03-22T12:05:47;100542.28;;;11.10;100.00
37202;BME280;37799;52.390;6.136;2023-03-22T12:11:10;100538.78;;;11.11;100.00
37202;BME280;37799;52.390;6.136;2023-03-22T12:13:56;100548.16;;;11.15;100.00
37202;BME280;37799;52.390;6.136;2023-03-22T12:16:30;100543.84;;;11.14;100.00
37202;BME280;37799;52.390;6.136;2023-03-22T12:19:05;100556.72;;;11.17;100.00
37202;BME280;37799;52.390;6.136;2023-03-22T12:21:36;100556.22;;;11.06;100.00
37202;BME280;37799;52.390;6.136;2023-03-22T12:24:03;100551.56;;;11.16;100.00
37202;BME280;37799;52.390;6.136;2023-03-22T12:26:35;100569.53;;;11.22;100.00
37202;BME280;37799;52.390;6.136;2023-03-22T12:29:04;100562.66;;;11.21;100.00
37202;BME280;37799;52.390;6.136;2023-03-22T12:31:36;100555.72;;;11.21;100.00
37202;BME280;37799;52.390;6.136;2023-03-22T12:34:05;100547.63;;;11.04;100.00
37202;BME280;37799;52.390;6.136;2023-03-22T12:36:41;100551.91;;;11.07;100.00
37202;BME280;37799;52.390;6.136;2023-03-22T12:39:27;100545.38;;;11.21;100.00
37202;BME280;37799;52.390;6.136;2023-03-22T12:41:59;100539.97;;;11.01;100.00
37202;BME280;37799;52.390;6.136;2023-03-22T12:44:34;100538.78;;;11.11;100.00
37202;BME280;37799;52.390;6.136;2023-03-22T12:47:22;100541.31;;;11.13;100.00
37202;BME280;37799;52.390;6.136;2023-03-22T12:50:10;100540.53;;;11.11;100.00
37202;BME280;37799;52.390;6.136;2023-03-22T12:52:45;100547.13;;;11.21;100.00
37202;BME280;37799;52.390;6.136;2023-03-22T12:55:24;100550.16;;;11.34;100.00
37202;BME280;37799;52.390;6.136;2023-03-22T12:57:50;100551.34;;;11.23;100.00
37202;BME280;37799;52.390;6.136;2023-03-22T13:00:20;100553.69;;;11.56;100.00
37202;BME280;37799;52.390;6.136;2023-03-22T13:02:58;100542.69;;;11.49;100.00
37202;BME280;37799;52.390;6.136;2023-03-22T13:05:28;100542.38;;;11.34;100.00
37202;BME280;37799;52.390;6.136;2023-03-22T13:07:54;100563.84;;;11.37;100.00
37202;BME280;37799;52.390;6.136;2023-03-22T13:13:32;100550.28;;;11.29;100.00
37202;BME280;37799;52.390;6.136;2023-03-22T13:16:14;100552.31;;;11.46;100.00
37202;BME280;37799;52.390;6.136;2023-03-22T13:21:15;100548.22;;;11.39;100.00
37202;BME280;37799;52.390;6.136;2023-03-22T13:26:21;100540.44;;;11.39;100.00
37202;BME280;37799;52.390;6.136;2023-03-22T13:28:56;100544.75;;;11.40;100.00
37202;BME280;37799;52.390;6.136;2023-03-22T13:34:19;100547.66;;;11.56;100.00
37202;BME280;37799;52.390;6.136;2023-03-22T13:36:50;100544.16;;;11.57;100.00
37202;BME280;37799;52.390;6.136;2023-03-22T13:39:16;100550.53;;;11.73;100.00
37202;BME280;37799;52.390;6.136;2023-03-22T13:41:45;100550.78;;;11.40;100.00
37202;BME280;37799;52.390;6.136;2023-03-22T13:44:29;100543.47;;;11.27;100.00
37202;BME280;37799;52.390;6.136;2023-03-22T13:47:00;100553.59;;;11.34;100.00
37202;BME280;37799;52.390;6.136;2023-03-22T13:51:58;100553.47;;;11.62;100.00
37202;BME280;37799;52.390;6.136;2023-03-22T13:54:36;100554.69;;;11.52;100.00